sensor_id;sensor_type;location;lat;lon;timestamp;pressure;altitude;pressure_sealevel;temperature;humidity
4528;BME280;62320;51.520;6.818;2023-02-22T00:09:36;101091.66;;;7.55;100.00
4528;BME280;62320;51.520;6.818;2023-02-22T00:19:38;101093.25;;;7.47;100.00
4528;BME280;62320;51.520;6.818;2023-02-22T00:29:44;101091.91;;;7.22;100.00
4528;BME280;62320;51.520;6.818;2023-02-22T00:39:47;101082.94;;;7.01;100.00
4528;BME280;62320;51.520;6.818;2023-02-22T00:49:49;101072.53;;;6.95;100.00
4528;BME280;62320;51.520;6.818;2023-02-22T00:59:50;101061.75;;;6.69;100.00
4528;BME280;62320;51.520;6.818;2023-02-22T01:09:52;101056.84;;;6.41;100.00
4528;BME280;62320;51.520;6.818;2023-02-22T01:19:53;101059.72;;;6.16;100.00
4528;BME280;62320;51.520;6.818;2023-02-22T01:29:55;101042.13;;;5.95;100.00
4528;BME280;62320;51.520;6.818;2023-02-22T01:39:57;101036.44;;;5.72;100.00
4528;BME280;62320;51.520;6.818;2023-02-22T01:49:58;101031.06;;;5.63;100.00
4528;BME280;62320;51.520;6.818;2023-02-22T02:00:12;101020.78;;;5.60;100.00
4528;BME280;62320;51.520;6.818;2023-02-22T02:10:17;101006.06;;;5.53;100.00
4528;BME280;62320;51.520;6.818;2023-02-22T02:31:08;100995.28;;;5.32;100.00
4528;BME280;62320;51.520;6.818;2023-02-22T02:41:16;100987.34;;;5.23;100.00
4528;BME280;62320;51.520;6.818;2023-02-22T02:51:20;100971.09;;;5.23;100.00
4528;BME280;62320;51.520;6.818;2023-02-22T03:01:42;100957.50;;;5.25;100.00
4528;BME280;62320;51.520;6.818;2023-02-22T03:11:58;100949.06;;;5.29;100.00
4528;BME280;62320;51.520;6.818;2023-02-22T03:32:14;100935.72;;;5.44;100.00
4528;BME280;62320;51.520;6.818;2023-02-22T03:42:21;100930.78;;;5.51;100.00
4528;BME280;62320;51.520;6.818;2023-02-22T03:52:24;100930.84;;;5.54;100.00
4528;BME280;62320;51.520;6.818;2023-02-22T04:02:26;100935.44;;;5.67;100.00
4528;BME280;62320;51.520;6.818;2023-02-22T04:12:28;100951.88;;;5.77;100.00
4528;BME280;62320;51.520;6.818;2023-02-22T04:22:29;100954.50;;;5.80;100.00
4528;BME280;62320;51.520;6.818;2023-02-22T04:32:31;100942.47;;;5.76;100.00
4528;BME280;62320;51.520;6.818;2023-02-22T04:42:34;100930.34;;;5.70;100.00
4528;BME280;62320;51.520;6.818;2023-02-22T04:52:36;100919.19;;;5.68;100.00
4528;BME280;62320;51.520;6.818;2023-02-22T05:02:38;100900.34;;;5.66;100.00
4528;BME280;62320;51.520;6.818;2023-02-22T05:12:40;100897.75;;;5.65;100.00
4528;BME280;62320;51.520;6.818;2023-02-22T05:22:41;100886.59;;;5.63;100.00
4528;BME280;62320;51.520;6.818;2023-02-22T05:32:43;100890.06;;;5.66;100.00
4528;BME280;62320;51.520;6.818;2023-02-22T05:42:49;100880.59;;;5.62;100.00
4528;BME280;62320;51.520;6.818;2023-02-22T05:52:51;100865.19;;;5.62;100.00
4528;BME280;62320;51.520;6.818;2023-02-22T06:03:03;100867.78;;;5.62;100.00
4528;BME280;62320;51.520;6.818;2023-02-22T06:13:05;100870.34;;;5.62;100.00
4528;BME280;62320;51.520;6.818;2023-02-22T06:23:07;100863.44;;;5.61;100.00
4528;BME280;62320;51.520;6.818;2023-02-22T06:33:09;100860.97;;;5.64;100.00
4528;BME280;62320;51.520;6.818;2023-02-22T06:43:12;100851.50;;;5.62;100.00
4528;BME280;62320;51.520;6.818;2023-02-22T06:53:14;100843.72;;;5.59;100.00
4528;BME280;62320;51.520;6.818;2023-02-22T07:03:15;100848.06;;;5.61;100.00
4528;BME280;62320;51.520;6.818;2023-02-22T07:13:17;100852.38;;;5.62;100.00
4528;BME280;62320;51.520;6.818;2023-02-22T07:23:19;100847.31;;;5.65;100.00
4528;BME280;62320;51.520;6.818;2023-02-22T07:33:21;100844.78;;;5.67;100.00
4528;BME280;62320;51.520;6.818;2023-02-22T07:43:24;100839.84;;;5.76;100.00
4528;BME280;62320;51.520;6.818;2023-02-22T07:53:29;100834.00;;;5.83;100.00
4528;BME280;62320;51.520;6.818;2023-02-22T08:03:33;100821.34;;;5.91;100.00
4528;BME280;62320;51.520;6.818;2023-02-22T08:13:37;100821.56;;;6.03;100.00
4528;BME280;62320;51.520;6.818;2023-02-22T08:23:39;100811.66;;;6.21;100.00
4528;BME280;62320;51.520;6.818;2023-02-22T08:33:40;100813.50;;;6.28;100.00
4528;BME280;62320;51.520;6.818;2023-02-22T08:43:42;100808.53;;;6.38;100.00
4528;BME280;62320;51.520;6.818;2023-02-22T08:53:44;100805.31;;;6.48;100.00
4528;BME280;62320;51.520;6.818;2023-02-22T09:03:47;100799.50;;;6.60;100.00
4528;BME280;62320;51.520;6.818;2023-02-22T09:13:48;100799.72;;;6.74;100.00
4528;BME280;62320;51.520;6.818;2023-02-22T09:23:50;100793.09;;;6.88;100.00
4528;BME280;62320;51.520;6.818;2023-02-22T09:33:54;100790.75;;;7.04;100.00
4528;BME280;62320;51.520;6.818;2023-02-22T09:44:15;100787.00;;;7.40;100.00
4528;BME280;62320;51.520;6.818;2023-02-22T10:04:39;100766.19;;;7.95;100.00
4528;BME280;62320;51.520;6.818;2023-02-22T10:25:13;100755.47;;;8.38;100.00
4528;BME280;62320;51.520;6.818;2023-02-22T10:35:25;100747.19;;;8.74;100.00
4528;BME280;62320;51.520;6.818;2023-02-22T10:45:29;100733.53;;;8.89;100.00
4528;BME280;62320;51.520;6.818;2023-02-22T10:55:33;100729.38;;;9.16;100.00
4528;BME280;62320;51.520;6.818;2023-02-22T11:05:37;100711.44;;;9.45;100.00
4528;BME280;62320;51.520;6.818;2023-02-22T11:15:39;100702.00;;;9.50;100.00
4528;BME280;62320;51.520;6.818;2023-02-22T11:25:41;100691.75;;;9.70;100.00
4528;BME280;62320;51.520;6.818;2023-02-22T11:46:13;100685.78;;;10.12;100.00
4528;BME280;62320;51.520;6.818;2023-02-22T11:56:21;100667.66;;;10.69;100.00
4528;BME280;62320;51.520;6.818;2023-02-22T12:17:12;100637.09;;;11.59;91.02
4528;BME280;62320;51.520;6.818;2023-02-22T12:27:24;100638.06;;;11.41;97.00
4528;BME280;62320;51.520;6.818;2023-02-22T13:19:38;100636.81;;;12.05;94.65
4528;BME280;62320;51.520;6.818;2023-02-22T13:29:46;100621.19;;;12.14;93.01
4528;BME280;62320;51.520;6.818;2023-02-22T13:40:03;100615.94;;;12.19;92.77
4528;BME280;62320;51.520;6.818;2023-02-22T14:10:50;100612.00;;;12.67;90.21
4528;BME280;62320;51.520;6.818;2023-02-22T14:21:11;100617.28;;;12.59;93.67
4528;BME280;62320;51.520;6.818;2023-02-22T14:31:16;100618.38;;;13.13;83.13
4528;BME280;62320;51.520;6.818;2023-02-22T14:41:37;100618.63;;;12.92;88.84
4528;BME280;62320;51.520;6.818;2023-02-22T14:51:48;100616.75;;;13.06;90.40
4528;BME280;62320;51.520;6.818;2023-02-22T15:02:10;100622.03;;;12.96;92.28
4528;BME280;62320;51.520;6.818;2023-02-22T15:12:23;100622.94;;;12.95;91.78
4528;BME280;62320;51.520;6.818;2023-02-22T15:22:33;100629.03;;;12.89;92.72
4528;BME280;62320;51.520;6.818;2023-02-22T15:32:38;100624.59;;;12.97;90.92
4528;BME280;62320;51.520;6.818;2023-02-22T15:43:03;100629.81;;;12.96;91.83
4528;BME280;62320;51.520;6.818;2023-02-22T15:53:07;100636.66;;;13.07;91.21
4528;BME280;62320;51.520;6.818;2023-02-22T16:03:22;100637.69;;;12.89;93.99
4528;BME280;62320;51.520;6.818;2023-02-22T16:13:25;100633.44;;;12.85;93.58
4528;BME280;62320;51.520;6.818;2023-02-22T16:24:03;100645.59;;;12.80;93.55
4528;BME280;62320;51.520;6.818;2023-02-22T16:34:15;100649.97;;;12.74;92.54
4528;BME280;62320;51.520;6.818;2023-02-22T16:44:17;100649.19;;;12.66;93.10
4528;BME280;62320;51.520;6.818;2023-02-22T16:54:27;100652.75;;;12.57;94.36
4528;BME280;62320;51.520;6.818;2023-02-22T17:04:30;100661.44;;;12.53;94.12
4528;BME280;62320;51.520;6.818;2023-02-22T17:14:33;100666.72;;;12.44;93.95
4528;BME280;62320;51.520;6.818;2023-02-22T17:24:35;100676.28;;;12.38;94.16
4528;BME280;62320;51.520;6.818;2023-02-22T17:34:39;100689.34;;;12.23;94.08
4528;BME280;62320;51.520;6.818;2023-02-22T17:44:41;100695.50;;;12.09;93.23
4528;BME280;62320;51.520;6.818;2023-02-22T17:54:42;100695.56;;;12.00;94.97
4528;BME280;62320;51.520;6.818;2023-02-22T18:04:44;100709.41;;;11.98;93.76
4528;BME280;62320;51.520;6.818;2023-02-22T18:14:45;100721.56;;;11.88;94.84
4528;BME280;62320;51.520;6.818;2023-02-22T18:24:47;100721.66;;;11.70;95.46
4528;BME280;62320;51.520;6.818;2023-02-22T18:34:48;100738.97;;;11.61;95.48
4528;BME280;62320;51.520;6.818;2023-02-22T18:44:51;100736.41;;;11.48;95.53
4528;BME280;62320;51.520;6.818;2023-02-22T18:54:52;100741.66;;;11.35;96.11
4528;BME280;62320;51.520;6.818;2023-02-22T19:04:54;100728.72;;;11.27;96.19
4528;BME280;62320;51.520;6.818;2023-02-22T19:14:58;100728.75;;;11.21;97.34
4528;BME280;62320;51.520;6.818;2023-02-22T19:24:59;100731.38;;;11.12;97.79
4528;BME280;62320;51.520;6.818;2023-02-22T19:35:01;100745.19;;;11.04;98.57
4528;BME280;62320;51.520;6.818;2023-02-22T19:45:03;100752.94;;;10.98;98.44
4528;BME280;62320;51.520;6.818;2023-02-22T19:55:06;100760.75;;;10.92;98.13
4528;BME280;62320;51.520;6.818;2023-02-22T20:05:12;100769.38;;;10.79;99.22
4528;BME280;62320;51.520;6.818;2023-02-22T20:15:16;100768.53;;;10.73;99.04
4528;BME280;62320;51.520;6.818;2023-02-22T20:25:18;100774.53;;;10.68;99.11
4528;BME280;62320;51.520;6.818;2023-02-22T20:35:20;100774.56;;;10.65;99.79
4528;BME280;62320;51.520;6.818;2023-02-22T20:45:22;100776.28;;;10.60;100.00
4528;BME280;62320;51.520;6.818;2023-02-22T20:55:24;100785.75;;;10.64;100.00
4528;BME280;62320;51.520;6.818;2023-02-22T21:05:25;100784.03;;;10.55;99.99
4528;BME280;62320;51.520;6.818;2023-02-22T21:15:27;100781.44;;;10.52;99.88
4528;BME280;62320;51.520;6.818;2023-02-22T21:25:29;100790.91;;;10.47;100.00
4528;BME280;62320;51.520;6.818;2023-02-22T21:35:34;100791.78;;;10.51;100.00
4528;BME280;62320;51.520;6.818;2023-02-22T21:45:37;100781.47;;;10.45;100.00
4528;BME280;62320;51.520;6.818;2023-02-22T21:55:39;100786.59;;;10.37;100.00
4528;BME280;62320;51.520;6.818;2023-02-22T22:05:41;100783.13;;;10.34;100.00
4528;BME280;62320;51.520;6.818;2023-02-22T22:15:46;100777.97;;;10.29;100.00
4528;BME280;62320;51.520;6.818;2023-02-22T22:25:47;100777.09;;;10.23;100.00
4528;BME280;62320;51.520;6.818;2023-02-22T22:35:51;100770.19;;;10.16;100.00
4528;BME280;62320;51.520;6.818;2023-02-22T22:45:52;100772.78;;;10.14;100.00
4528;BME280;62320;51.520;6.818;2023-02-22T22:55:54;100775.31;;;10.05;100.00
4528;BME280;62320;51.520;6.818;2023-02-22T23:06:00;100778.72;;;9.99;100.00
4528;BME280;62320;51.520;6.818;2023-02-22T23:16:03;100785.66;;;9.99;100.00
4528;BME280;62320;51.520;6.818;2023-02-22T23:26:09;100778.72;;;9.99;100.00
4528;BME280;62320;51.520;6.818;2023-02-22T23:36:12;100779.59;;;10.00;100.00
4528;BME280;62320;51.520;6.818;2023-02-22T23:46:15;100787.34;;;10.00;100.00
4528;BME280;62320;51.520;6.818;2023-02-22T23:56:19;100795.97;;;9.94;100.00
